createdAt,value
2023-12-14T00:01:22.214Z,7.81
2023-12-14T00:03:50.139Z,7.81
2023-12-14T00:06:17.824Z,7.78
2023-12-14T00:08:45.654Z,7.84
2023-12-14T00:11:13.448Z,7.82
2023-12-14T00:13:41.854Z,7.89
2023-12-14T00:16:10.066Z,7.95
2023-12-14T00:18:38.798Z,7.94
2023-12-14T00:21:06.979Z,7.93
2023-12-14T00:23:37.720Z,7.93
2023-12-14T00:26:05.547Z,7.93
2023-12-14T00:28:34.625Z,7.93
2023-12-14T00:31:02.881Z,7.93
2023-12-14T00:33:31.111Z,7.98
2023-12-14T00:35:59.052Z,7.92
2023-12-14T00:38:26.956Z,7.98
2023-12-14T00:40:54.780Z,8.01
2023-12-14T00:43:22.818Z,7.96
2023-12-14T00:45:50.598Z,7.94
2023-12-14T00:48:18.364Z,7.89
2023-12-14T00:50:46.279Z,7.98
2023-12-14T00:53:14.109Z,7.96
2023-12-14T00:55:41.969Z,7.90
2023-12-14T00:58:09.965Z,7.92
2023-12-14T01:00:37.608Z,7.90
2023-12-14T01:03:05.813Z,7.93
2023-12-14T01:05:33.787Z,7.90
2023-12-14T01:08:01.614Z,7.93
2023-12-14T01:10:29.231Z,7.88
2023-12-14T01:12:57.008Z,7.88
2023-12-14T01:15:24.698Z,7.88
2023-12-14T01:17:52.617Z,7.89
2023-12-14T01:20:20.471Z,7.86
2023-12-14T01:22:48.208Z,7.92
2023-12-14T01:25:16.204Z,7.88
2023-12-14T01:27:44.144Z,7.87
2023-12-14T01:30:12.466Z,7.87
2023-12-14T01:32:40.565Z,7.87
2023-12-14T01:35:09.068Z,7.89
2023-12-14T01:37:36.889Z,7.88
2023-12-14T01:40:05.011Z,7.91
2023-12-14T01:42:32.782Z,7.88
2023-12-14T01:45:00.654Z,7.92
2023-12-14T01:47:28.392Z,7.91
2023-12-14T01:49:56.128Z,7.91
2023-12-14T01:52:23.893Z,7.79
2023-12-14T01:54:51.633Z,7.81
2023-12-14T01:57:19.466Z,7.85
2023-12-14T01:59:47.515Z,7.84
2023-12-14T02:02:15.303Z,7.75
2023-12-14T02:04:43.164Z,7.72
2023-12-14T02:07:10.848Z,7.80
2023-12-14T02:09:38.662Z,7.60
2023-12-14T02:12:06.839Z,7.70
2023-12-14T02:14:34.587Z,7.77
2023-12-14T02:17:02.402Z,7.72
2023-12-14T02:19:30.188Z,7.70
2023-12-14T02:21:58.396Z,7.75
2023-12-14T02:24:26.290Z,7.81
2023-12-14T02:27:02.598Z,7.88
2023-12-14T02:29:32.248Z,7.86
2023-12-14T02:32:00.285Z,7.90
2023-12-14T02:34:28.084Z,7.92
2023-12-14T02:36:58.563Z,7.93
2023-12-14T02:39:26.255Z,7.93
2023-12-14T02:41:53.984Z,7.91
2023-12-14T02:44:21.820Z,7.84
2023-12-14T02:46:49.613Z,7.77
2023-12-14T02:49:17.342Z,7.80
2023-12-14T02:51:44.907Z,7.82
2023-12-14T02:54:12.617Z,7.79
2023-12-14T02:56:40.324Z,7.80
2023-12-14T02:59:08.390Z,7.96
2023-12-14T03:01:36.058Z,7.60
2023-12-14T03:04:03.833Z,7.69
2023-12-14T03:06:31.532Z,7.74
2023-12-14T03:08:59.200Z,7.80
2023-12-14T03:11:27.042Z,7.82
2023-12-14T03:13:54.825Z,7.82
2023-12-14T03:16:23.073Z,7.75
2023-12-14T03:18:54.317Z,7.84
2023-12-14T03:21:22.132Z,7.79
2023-12-14T03:23:50.009Z,7.74
2023-12-14T03:26:17.700Z,7.70
2023-12-14T03:28:45.486Z,7.74
2023-12-14T03:31:16.453Z,7.62
2023-12-14T03:33:44.551Z,7.59
2023-12-14T03:36:12.741Z,7.57
2023-12-14T03:38:40.508Z,7.49
2023-12-14T03:41:08.448Z,7.51
2023-12-14T03:43:36.222Z,7.36
2023-12-14T03:46:04.375Z,7.18
2023-12-14T03:48:32.112Z,7.27
2023-12-14T03:51:04.580Z,7.33
2023-12-14T03:53:32.480Z,7.07
2023-12-14T03:56:00.280Z,6.84
2023-12-14T03:58:28.211Z,7.00
2023-12-14T04:00:55.943Z,6.72
2023-12-14T04:03:23.603Z,6.93
2023-12-14T04:05:51.369Z,6.92
2023-12-14T04:08:19.015Z,6.78
2023-12-14T04:10:46.793Z,6.71
2023-12-14T04:13:14.566Z,6.88
2023-12-14T04:15:42.868Z,6.63
2023-12-14T04:18:10.641Z,6.45
2023-12-14T04:20:38.141Z,6.53
2023-12-14T04:23:05.953Z,6.44
2023-12-14T04:25:33.720Z,6.41
2023-12-14T04:28:01.511Z,6.43
2023-12-14T04:30:29.221Z,6.48
2023-12-14T04:32:57.148Z,6.64
2023-12-14T04:35:24.837Z,6.85
2023-12-14T04:37:52.705Z,6.68
2023-12-14T04:40:20.729Z,6.66
2023-12-14T04:42:48.377Z,6.65
2023-12-14T04:45:17.776Z,6.43
2023-12-14T04:47:45.591Z,6.60
2023-12-14T04:50:13.784Z,6.67
2023-12-14T04:52:43.966Z,6.55
2023-12-14T04:55:11.745Z,6.59
2023-12-14T04:57:39.527Z,6.68
2023-12-14T05:00:08.979Z,6.64
2023-12-14T05:02:36.792Z,6.63
2023-12-14T05:05:05.052Z,6.64
2023-12-14T05:07:32.851Z,6.68
2023-12-14T05:10:00.550Z,6.66
2023-12-14T05:12:30.173Z,6.70
2023-12-14T05:14:58.117Z,6.65
2023-12-14T05:17:25.749Z,6.53
2023-12-14T05:19:53.672Z,6.48
2023-12-14T05:22:21.444Z,6.50
2023-12-14T05:24:49.260Z,6.56
2023-12-14T05:27:17.006Z,6.63
2023-12-14T05:29:44.683Z,6.55
2023-12-14T05:32:12.619Z,6.64
2023-12-14T05:34:40.356Z,6.58
2023-12-14T05:37:08.394Z,6.52
2023-12-14T05:39:36.093Z,6.57
2023-12-14T05:42:03.913Z,6.55
2023-12-14T05:44:31.656Z,6.45
2023-12-14T05:46:59.405Z,6.34
2023-12-14T05:49:27.116Z,6.54
2023-12-14T05:51:54.850Z,6.47
2023-12-14T05:54:22.788Z,6.38
2023-12-14T05:56:50.424Z,6.28
2023-12-14T05:59:18.741Z,6.43
2023-12-14T06:01:46.551Z,6.42
2023-12-14T06:04:14.329Z,6.29
2023-12-14T06:06:42.381Z,6.26
2023-12-14T06:09:10.177Z,6.26
2023-12-14T06:11:38.051Z,6.34
2023-12-14T06:14:05.862Z,6.33
2023-12-14T06:16:33.813Z,6.32
2023-12-14T06:19:01.707Z,6.29
2023-12-14T06:21:30.020Z,6.22
2023-12-14T06:23:58.726Z,6.17
2023-12-14T06:26:27.247Z,6.29
2023-12-14T06:28:56.231Z,6.26
2023-12-14T06:31:24.127Z,6.27
2023-12-14T06:33:51.834Z,6.24
2023-12-14T06:36:20.061Z,6.18
2023-12-14T06:38:50.506Z,6.18
2023-12-14T06:41:25.086Z,5.83
2023-12-14T06:43:53.769Z,5.99
2023-12-14T06:46:22.357Z,5.97
2023-12-14T06:48:50.598Z,5.89
2023-12-14T06:51:18.684Z,5.85
2023-12-14T06:53:47.280Z,5.70
2023-12-14T06:56:15.588Z,5.59
2023-12-14T06:58:45.199Z,5.53
2023-12-14T07:01:16.725Z,5.65
2023-12-14T07:03:45.799Z,5.66
2023-12-14T07:06:15.259Z,5.68
2023-12-14T07:08:43.242Z,5.66
2023-12-14T07:11:11.626Z,5.68
2023-12-14T07:13:39.855Z,5.66
2023-12-14T07:16:09.580Z,5.57
2023-12-14T07:18:41.898Z,5.64
2023-12-14T07:21:10.212Z,5.58
2023-12-14T07:23:38.498Z,5.63
2023-12-14T07:26:08.134Z,5.55
2023-12-14T07:28:36.378Z,5.70
2023-12-14T07:31:04.284Z,5.81
2023-12-14T07:33:32.274Z,5.81
2023-12-14T07:36:00.054Z,5.74
2023-12-14T07:38:27.740Z,5.67
2023-12-14T07:40:55.501Z,5.78
2023-12-14T07:43:24.073Z,5.82
2023-12-14T07:45:51.911Z,5.87
2023-12-14T07:48:19.805Z,5.87
2023-12-14T07:50:49.777Z,5.89
2023-12-14T07:53:17.658Z,5.81
2023-12-14T07:55:45.341Z,5.86
2023-12-14T07:58:14.278Z,5.82
2023-12-14T08:00:42.033Z,5.87
2023-12-14T08:03:09.741Z,5.96
2023-12-14T08:05:37.581Z,5.92
2023-12-14T08:08:05.326Z,6.02
2023-12-14T08:10:33.380Z,6.05
2023-12-14T08:13:01.150Z,6.16
2023-12-14T08:15:28.768Z,6.18
2023-12-14T08:17:56.638Z,6.18
2023-12-14T08:20:24.259Z,6.30
2023-12-14T08:22:52.108Z,6.33
2023-12-14T08:25:19.962Z,6.33
2023-12-14T08:27:47.793Z,6.24
2023-12-14T08:30:15.788Z,6.30
2023-12-14T08:32:44.416Z,6.29
2023-12-14T08:35:12.490Z,6.28
2023-12-14T08:37:40.393Z,6.40
2023-12-14T08:40:08.768Z,6.38
2023-12-14T08:42:37.539Z,6.40
2023-12-14T08:45:08.007Z,6.60
2023-12-14T08:47:36.601Z,6.74
2023-12-14T08:50:05.484Z,6.74
2023-12-14T08:52:33.562Z,6.66
2023-12-14T08:55:03.161Z,6.69
2023-12-14T08:57:30.786Z,6.73
2023-12-14T08:59:58.469Z,6.77
2023-12-14T09:02:26.301Z,6.67
2023-12-14T09:04:54.083Z,6.67
2023-12-14T09:07:21.775Z,6.56
2023-12-14T09:09:49.512Z,6.56
2023-12-14T09:12:17.362Z,6.75
2023-12-14T09:14:47.691Z,6.92
2023-12-14T09:17:15.637Z,6.95
2023-12-14T09:19:43.511Z,7.08
2023-12-14T09:22:11.255Z,7.17
2023-12-14T09:24:38.997Z,7.06
2023-12-14T09:27:06.569Z,7.14
2023-12-14T09:29:34.447Z,7.16
2023-12-14T09:32:02.414Z,7.15
2023-12-14T09:34:30.206Z,7.07
2023-12-14T09:36:58.147Z,7.07
2023-12-14T09:39:25.881Z,7.05
2023-12-14T09:41:53.698Z,7.24
2023-12-14T09:44:21.777Z,7.40
2023-12-14T09:46:51.670Z,7.46
2023-12-14T09:49:19.772Z,7.46
2023-12-14T09:51:48.171Z,7.69
2023-12-14T09:54:15.956Z,7.57
2023-12-14T09:56:48.222Z,7.48
2023-12-14T09:59:16.808Z,7.52
2023-12-14T10:01:46.735Z,7.65
2023-12-14T10:04:19.655Z,7.58
2023-12-14T10:06:49.176Z,7.48
2023-12-14T10:09:24.615Z,7.29
2023-12-14T10:12:06.648Z,7.46
2023-12-14T10:14:34.852Z,7.54
2023-12-14T10:17:23.017Z,7.83
2023-12-14T10:19:51.197Z,7.86
2023-12-14T10:22:19.641Z,7.64
2023-12-14T10:24:51.048Z,7.62
2023-12-14T10:27:19.039Z,7.61
2023-12-14T10:29:47.805Z,7.79
2023-12-14T10:32:15.930Z,7.83
2023-12-14T10:34:44.076Z,7.80
2023-12-14T10:37:14.567Z,7.89
2023-12-14T10:39:44.160Z,8.02
2023-12-14T10:42:19.015Z,7.88
2023-12-14T10:47:27.793Z,8.05
2023-12-14T10:49:57.991Z,8.17
2023-12-14T10:52:26.757Z,8.12
2023-12-14T10:55:01.684Z,8.10
2023-12-14T10:57:30.462Z,8.10
2023-12-14T11:00:03.324Z,7.90
2023-12-14T11:02:40.458Z,7.94
2023-12-14T11:05:10.882Z,8.07
2023-12-14T11:07:52.951Z,7.89
2023-12-14T11:10:42.250Z,7.98
2023-12-14T11:13:15.307Z,8.13
2023-12-14T11:15:52.401Z,8.16
2023-12-14T11:18:22.047Z,8.19
2023-12-14T11:20:51.867Z,8.26
2023-12-14T11:23:26.126Z,8.46
2023-12-14T11:25:59.192Z,8.60
2023-12-14T11:28:29.733Z,8.97
2023-12-14T11:30:58.498Z,9.06
2023-12-14T11:33:28.652Z,8.66
2023-12-14T11:35:59.392Z,8.65
2023-12-14T11:38:27.393Z,8.62
2023-12-14T11:40:55.299Z,8.64
2023-12-14T11:43:25.077Z,8.49
2023-12-14T11:45:54.592Z,8.49
2023-12-14T11:48:23.117Z,8.37
2023-12-14T11:50:50.942Z,8.44
2023-12-14T11:53:19.718Z,8.63
2023-12-14T11:55:47.595Z,8.55
2023-12-14T11:58:17.246Z,8.33
2023-12-14T12:00:47.647Z,8.37
2023-12-14T12:03:17.942Z,8.60
2023-12-14T12:05:51.120Z,8.82
2023-12-14T12:08:22.769Z,8.56
2023-12-14T12:10:51.734Z,8.32
2023-12-14T12:13:21.457Z,8.31
2023-12-14T12:15:49.609Z,8.49
2023-12-14T12:18:18.993Z,8.78
2023-12-14T12:20:47.718Z,8.86
2023-12-14T12:23:15.398Z,8.70
2023-12-14T12:25:43.388Z,8.47
2023-12-14T12:28:11.226Z,8.42
2023-12-14T12:30:40.546Z,8.54
2023-12-14T12:33:10.159Z,8.81
2023-12-14T12:35:37.854Z,8.65
2023-12-14T12:38:06.389Z,8.48
2023-12-14T12:40:34.822Z,8.55
2023-12-14T12:43:03.438Z,8.42
2023-12-14T12:45:33.666Z,8.41
2023-12-14T12:48:01.813Z,8.44
2023-12-14T12:50:29.731Z,8.63
2023-12-14T12:52:57.611Z,8.55
2023-12-14T12:55:25.311Z,8.52
2023-12-14T12:57:53.136Z,8.47
2023-12-14T13:00:21.287Z,8.40
2023-12-14T13:02:49.409Z,8.43
2023-12-14T13:05:18.605Z,8.49
2023-12-14T13:07:48.245Z,8.41
2023-12-14T13:10:25.918Z,8.31
2023-12-14T13:12:59.249Z,8.45
2023-12-14T13:15:30.816Z,8.37
2023-12-14T13:17:59.963Z,8.47
2023-12-14T13:20:27.999Z,8.50
2023-12-14T13:22:55.633Z,8.23
2023-12-14T13:25:27.925Z,8.30
2023-12-14T13:27:55.827Z,8.05
2023-12-14T13:30:24.243Z,8.22
2023-12-14T13:32:52.401Z,8.27
2023-12-14T13:35:20.175Z,8.28
2023-12-14T13:37:47.912Z,8.37
2023-12-14T13:40:18.668Z,8.39
2023-12-14T13:42:54.928Z,8.32
2023-12-14T13:45:32.018Z,8.27
2023-12-14T13:48:00.750Z,8.27
2023-12-14T13:50:29.645Z,8.28
2023-12-14T13:52:57.939Z,8.29
2023-12-14T13:55:25.969Z,8.35
2023-12-14T13:57:54.047Z,8.41
2023-12-14T14:00:22.970Z,8.38
2023-12-14T14:02:50.736Z,8.39
2023-12-14T14:05:18.561Z,8.45
2023-12-14T14:07:46.656Z,8.50
2023-12-14T14:10:14.645Z,8.53
2023-12-14T14:12:42.885Z,8.57
2023-12-14T14:15:11.355Z,8.38
2023-12-14T14:17:39.351Z,8.41
2023-12-14T14:20:08.612Z,8.46
2023-12-14T14:22:39.742Z,8.56
2023-12-14T14:25:08.092Z,8.50
2023-12-14T14:27:36.259Z,8.63
2023-12-14T14:30:04.949Z,8.67
2023-12-14T14:32:34.063Z,8.58
2023-12-14T14:35:02.516Z,8.61
2023-12-14T14:37:30.363Z,8.47
2023-12-14T14:39:58.177Z,8.40
2023-12-14T14:42:26.366Z,8.30
2023-12-14T14:44:54.259Z,8.22
2023-12-14T14:47:23.279Z,8.16
2023-12-14T14:49:51.298Z,8.11
2023-12-14T14:52:21.191Z,8.13
2023-12-14T14:54:48.804Z,8.03
2023-12-14T14:57:16.408Z,8.08
2023-12-14T14:59:44.031Z,8.03
2023-12-14T15:02:11.806Z,8.15
2023-12-14T15:04:39.562Z,8.10
2023-12-14T15:07:09.306Z,7.97
2023-12-14T15:09:37.179Z,7.94
2023-12-14T15:12:05.069Z,7.97
2023-12-14T15:14:32.948Z,7.93
2023-12-14T15:17:00.778Z,7.98
2023-12-14T15:19:29.299Z,7.75
2023-12-14T15:21:57.670Z,7.71
2023-12-14T15:24:28.036Z,7.62
2023-12-14T15:26:55.930Z,7.52
2023-12-14T15:29:24.203Z,7.49
2023-12-14T15:31:53.894Z,7.51
2023-12-14T15:34:21.941Z,7.57
2023-12-14T15:36:49.618Z,7.53
2023-12-14T15:39:17.408Z,7.53
2023-12-14T15:41:45.195Z,7.51
2023-12-14T15:44:12.849Z,7.62
2023-12-14T15:46:40.843Z,7.61
2023-12-14T15:49:08.699Z,7.58
2023-12-14T15:51:40.580Z,7.56
2023-12-14T15:54:08.418Z,7.58
2023-12-14T15:56:36.392Z,7.48
2023-12-14T15:59:05.303Z,7.35
2023-12-14T16:01:33.288Z,7.37
2023-12-14T16:04:00.938Z,7.38
2023-12-14T16:06:28.669Z,7.39
2023-12-14T16:08:56.561Z,7.44
2023-12-14T16:11:24.289Z,7.35
2023-12-14T16:13:53.618Z,7.31
2023-12-14T16:16:21.496Z,7.35
2023-12-14T16:18:49.861Z,7.48
2023-12-14T16:21:17.853Z,7.56
2023-12-14T16:23:45.581Z,7.65
2023-12-14T16:26:14.082Z,7.47
2023-12-14T16:28:42.231Z,7.42
2023-12-14T16:31:09.991Z,7.52
2023-12-14T16:33:40.874Z,7.68
2023-12-14T16:36:15.948Z,7.55
2023-12-14T16:38:47.353Z,7.46
2023-12-14T16:41:15.738Z,7.43
2023-12-14T16:43:43.942Z,7.33
2023-12-14T16:46:11.659Z,7.27
2023-12-14T16:48:40.048Z,7.25
2023-12-14T16:51:08.147Z,7.44
2023-12-14T16:53:35.844Z,7.21
2023-12-14T16:56:06.470Z,7.31
2023-12-14T16:58:39.885Z,7.38
2023-12-14T17:01:07.983Z,7.39
2023-12-14T17:03:35.876Z,7.28
2023-12-14T17:06:04.017Z,7.29
2023-12-14T17:08:31.813Z,7.08
2023-12-14T17:11:00.672Z,7.00
2023-12-14T17:13:28.445Z,6.80
2023-12-14T17:15:56.279Z,6.86
2023-12-14T17:18:24.147Z,6.77
2023-12-14T17:20:51.965Z,6.75
2023-12-14T17:23:19.861Z,6.60
2023-12-14T17:25:48.305Z,6.67
2023-12-14T17:28:16.275Z,6.70
2023-12-14T17:30:44.378Z,6.80
2023-12-14T17:33:13.762Z,6.93
2023-12-14T17:35:42.065Z,6.98
2023-12-14T17:38:09.862Z,7.09
2023-12-14T17:40:37.521Z,7.05
2023-12-14T17:43:05.430Z,7.17
2023-12-14T17:45:33.310Z,7.18
2023-12-14T17:48:26.712Z,6.83
2023-12-14T17:50:56.523Z,6.76
2023-12-14T17:53:25.692Z,6.86
2023-12-14T17:55:53.667Z,6.99
2023-12-14T17:58:21.374Z,7.10
2023-12-14T18:00:51.875Z,7.12
2023-12-14T18:03:19.869Z,7.04
2023-12-14T18:05:47.700Z,7.13
2023-12-14T18:08:15.773Z,7.19
2023-12-14T18:10:43.476Z,7.23
2023-12-14T18:13:11.151Z,7.18
2023-12-14T18:15:38.939Z,7.18
2023-12-14T18:18:06.646Z,7.11
2023-12-14T18:20:34.567Z,7.20
2023-12-14T18:23:04.103Z,7.13
2023-12-14T18:25:31.664Z,7.26
2023-12-14T18:28:03.136Z,7.27
2023-12-14T18:30:30.845Z,7.10
2023-12-14T18:32:58.356Z,7.12
2023-12-14T18:35:26.019Z,7.02
2023-12-14T18:37:53.787Z,7.03
2023-12-14T18:40:26.034Z,7.13
2023-12-14T18:42:53.901Z,7.01
2023-12-14T18:45:21.877Z,7.18
2023-12-14T18:47:49.582Z,7.10
2023-12-14T18:50:17.825Z,6.97
2023-12-14T18:52:45.719Z,7.02
2023-12-14T18:55:13.568Z,6.98
2023-12-14T18:57:44.223Z,7.06
2023-12-14T19:00:16.008Z,7.11
2023-12-14T19:02:43.670Z,7.11
2023-12-14T19:05:12.037Z,7.17
2023-12-14T19:07:40.032Z,7.12
2023-12-14T19:10:09.385Z,7.14
2023-12-14T19:12:37.800Z,7.13
2023-12-14T19:15:06.971Z,7.19
2023-12-14T19:17:35.027Z,7.23
2023-12-14T19:20:03.024Z,7.18
2023-12-14T19:22:31.851Z,7.05
2023-12-14T19:24:59.593Z,7.05
2023-12-14T19:27:27.375Z,7.02
2023-12-14T19:29:56.138Z,6.92
2023-12-14T19:32:23.876Z,6.94
2023-12-14T19:34:52.877Z,6.98
2023-12-14T19:37:20.771Z,7.04
2023-12-14T19:39:48.541Z,7.04
2023-12-14T19:42:16.240Z,6.99
2023-12-14T19:44:44.590Z,7.08
2023-12-14T19:47:12.815Z,7.03
2023-12-14T19:49:41.342Z,6.99
2023-12-14T19:52:09.889Z,7.01
2023-12-14T19:54:41.037Z,7.05
2023-12-14T19:57:09.709Z,7.09
2023-12-14T19:59:38.869Z,7.06
2023-12-14T20:02:07.299Z,7.01
2023-12-14T20:04:35.125Z,6.95
2023-12-14T20:07:02.995Z,6.95
2023-12-14T20:09:30.781Z,7.01
2023-12-14T20:11:58.766Z,6.92
2023-12-14T20:14:26.671Z,6.92
2023-12-14T20:16:54.597Z,6.83
2023-12-14T20:19:22.257Z,6.90
2023-12-14T20:21:49.917Z,6.94
2023-12-14T20:24:17.588Z,7.01
2023-12-14T20:26:45.287Z,7.02
2023-12-14T20:29:13.683Z,6.85
2023-12-14T20:31:41.372Z,6.89
2023-12-14T20:34:10.020Z,6.90
2023-12-14T20:36:39.276Z,6.85
2023-12-14T20:39:08.434Z,6.82
2023-12-14T20:41:36.270Z,6.76
2023-12-14T20:44:04.209Z,6.78
2023-12-14T20:46:33.950Z,6.70
2023-12-14T20:49:02.070Z,6.60
2023-12-14T20:51:30.561Z,6.61
2023-12-14T20:53:58.496Z,6.58
2023-12-14T20:56:26.376Z,6.61
2023-12-14T20:58:54.937Z,6.70
2023-12-14T21:01:22.926Z,6.70
2023-12-14T21:03:51.582Z,6.66
2023-12-14T21:06:21.167Z,6.66
2023-12-14T21:08:50.935Z,6.37
2023-12-14T21:11:20.928Z,6.35
2023-12-14T21:13:49.311Z,6.40
2023-12-14T21:16:17.054Z,6.45
2023-12-14T21:18:47.251Z,6.31
2023-12-14T21:21:15.826Z,6.23
2023-12-14T21:23:43.584Z,6.29
2023-12-14T21:26:13.585Z,6.30
2023-12-14T21:28:41.356Z,6.39
2023-12-14T21:31:09.221Z,6.53
2023-12-14T21:33:38.283Z,6.48
2023-12-14T21:36:07.070Z,6.39
2023-12-14T21:38:37.049Z,6.39
2023-12-14T21:41:05.524Z,6.34
2023-12-14T21:43:33.229Z,6.39
2023-12-14T21:46:01.029Z,6.35
2023-12-14T21:48:28.883Z,6.31
2023-12-14T21:50:56.593Z,6.39
2023-12-14T21:53:25.264Z,6.37
2023-12-14T21:55:53.146Z,6.43
2023-12-14T21:58:20.908Z,6.39
2023-12-14T22:00:48.771Z,6.43
2023-12-14T22:03:17.012Z,6.38
2023-12-14T22:05:44.800Z,6.41
2023-12-14T22:08:12.689Z,6.36
2023-12-14T22:10:45.987Z,6.32
2023-12-14T22:13:13.877Z,6.30
2023-12-14T22:15:41.720Z,6.40
2023-12-14T22:18:10.300Z,6.39
2023-12-14T22:20:38.450Z,6.47
2023-12-14T22:23:06.251Z,6.43
2023-12-14T22:25:34.000Z,6.40
2023-12-14T22:28:01.756Z,6.40
2023-12-14T22:30:29.589Z,6.44
2023-12-14T22:32:57.185Z,6.42
2023-12-14T22:35:25.420Z,6.35
2023-12-14T22:37:53.171Z,6.37
2023-12-14T22:40:21.146Z,6.24
2023-12-14T22:42:48.999Z,6.25
2023-12-14T22:45:16.826Z,6.19
2023-12-14T22:47:44.663Z,6.21
2023-12-14T22:50:12.768Z,6.29
2023-12-14T22:52:40.489Z,6.28
2023-12-14T22:55:12.819Z,6.23
2023-12-14T22:57:40.613Z,6.28
2023-12-14T23:00:18.941Z,6.28
2023-12-14T23:02:46.697Z,6.30
2023-12-14T23:05:20.798Z,6.22
2023-12-14T23:07:48.713Z,6.16
2023-12-14T23:10:16.920Z,6.09
2023-12-14T23:12:44.798Z,6.05
2023-12-14T23:15:12.818Z,5.94
2023-12-14T23:17:40.805Z,5.92
2023-12-14T23:20:09.480Z,5.96
2023-12-14T23:22:37.277Z,5.90
2023-12-14T23:25:05.484Z,5.91
2023-12-14T23:27:33.396Z,5.69
2023-12-14T23:30:01.220Z,5.71
2023-12-14T23:32:29.572Z,5.70
2023-12-14T23:34:57.920Z,5.78
2023-12-14T23:37:25.640Z,5.78
2023-12-14T23:39:53.376Z,5.68
2023-12-14T23:42:21.105Z,5.69
2023-12-14T23:44:49.047Z,5.71
2023-12-14T23:47:16.983Z,5.63
2023-12-14T23:49:44.719Z,5.61
2023-12-14T23:52:12.703Z,5.54
2023-12-14T23:54:40.445Z,5.52
2023-12-14T23:57:09.426Z,5.39
2023-12-14T23:59:37.194Z,5.45
